Lansdowne House Airport
CYLH : rendu visible

Aérodrome :











RETROUVEZ-NOUS SUR...

 
LOGIN :

S'inscrire | Disclaimer

   EN    FR    IT 

 









Légende :    VFR   VFR Marginal   IFR   IFR Intensif   IFR Très Intensif
Visi : 
Plafond : 
>= 8 km
>= 3000ft
5 à 8 km
1000 à 3000 ft
1500m à 5 km
500 à 1000 ft
800 à 1500m
200 à 500 ft
< 800m
< 200 ft
Symboles :   Orages  Brouillard  Fortes neiges  Fortes précipitations  Vent > 20 kt






- Altitude de l'aérodrome : 834 ft
- Code IATA : YLH


CYLH - Lansdowne House

DERNIER METAR :
  • 121815Z AUTO 22006KT 200V260 9SM SCT023 M14/M19 A3023 RMK SLP267

METARs EXPIRÉS :
  • 121800Z AUTO 24006KT 200V280 9SM BKN023 M14/M19 A3024 RMK SLP269
  • 121700Z AUTO 26004KT 9SM OVC029 M15/M20 A3027 RMK SLP280
  • 121600Z AUTO 25004KT 9SM BKN033 M17/M21 A3030 RMK SLP292

TAF N/A



MET'MAP, la Météo Aéronautique d'un coup d'oeil ! - Copyright ORBIFLY Décembre 2007 - Disclaimer

ORBIFLY MET'MAP TEAM :

Programmation & Développement : Alexandra Zaïnal
Conception & Développement : Baudouin d'Aumeries
Co-Programmation & Développement : Marc-Olivier Méhu
Soutien technique & logistique : Manuel Goepfert

Contact : metmap@orbifly.com




SOURCES & CREDITS :

   NOAA       Earth
Advisory